Time;durP1;ratioP1;P1;durP2;ratioP2;P2;SDS_P1;SDS_P2;PMS_P1;PMS_P2;Temp;Humidity;BMP_temperature;BMP_pressure;BME280_temperature;BME280_humidity;BME280_pressure;Samples;Min_cycle;Max_cycle;Signal;HPM_P1;HPM_P2
2021/07/10 00:01:29;;;;;;;;;;;;;;;25.96;52.44;100913.56;1774743;79;20567;-56
2021/07/10 00:03:56;;;;;;;;;;;;;;;25.98;52.44;100911.80;1773466;79;20202;-56
2021/07/10 00:06:23;;;;;;;;;;;;;;;25.98;52.50;100902.05;1776695;79;20458;-56
2021/07/10 00:08:48;;;;;;;;;;;;;;;25.99;52.51;100906.46;1774728;79;21804;-56
2021/07/10 00:11:14;;;;;;;;;;;;;;;26.00;52.55;100909.48;1762118;79;20234;-56
2021/07/10 00:13:40;;;;;;;;;;;;;;;25.99;52.57;100901.70;1769022;79;20228;-55
2021/07/10 00:16:06;;;;;;;;;;;;;;;26.00;52.57;100898.34;1771110;79;20255;-56
2021/07/10 00:18:32;;;;;;;;;;;;;;;26.01;52.58;100899.39;1775387;78;20431;-58
2021/07/10 00:20:58;;;;;;;;;;;;;;;26.01;52.62;100900.78;1774014;79;21098;-55
2021/07/10 00:23:24;;;;;;;;;;;;;;;26.02;52.65;100898.20;1778509;78;20247;-57
2021/07/10 00:25:50;;;;;;;;;;;;;;;26.01;52.66;100895.20;1774196;78;20258;-56
2021/07/10 00:28:16;;;;;;;;;;;;;;;26.03;52.71;100899.84;1774689;78;20211;-55
2021/07/10 00:30:42;;;;;;;;;;;;;;;26.03;52.72;100902.63;1770727;78;20801;-56
2021/07/10 00:33:08;;;;;;;;;;;;;;;26.03;52.73;100902.63;1773494;78;21045;-56
2021/07/10 00:35:35;;;;;;;;;;;;;;;26.04;52.75;100899.25;1780275;78;20736;-56
2021/07/10 00:38:01;;;;;;;;;;;;;;;26.05;52.78;100901.70;1772311;79;20259;-57
2021/07/10 00:40:28;;;;;;;;;;;;;;;26.05;52.80;100900.89;1770893;79;20227;-56
2021/07/10 00:42:54;;;;;;;;;;;;;;;26.06;52.90;100903.88;1765263;79;20808;-56
2021/07/10 00:45:20;;;;;;;;;;;;;;;26.06;52.97;100901.91;1774083;78;20339;-56
2021/07/10 00:47:46;;;;;;;;;;;;;;;26.06;53.00;100892.73;1771380;78;20310;-56
2021/07/10 00:50:14;;;;;;;;;;;;;;;26.07;53.05;100896.57;1776526;78;20202;-56
2021/07/10 00:52:40;;;;;;;;;;;;;;;26.07;53.10;100892.39;1774127;78;20492;-57
2021/07/10 00:55:07;;;;;;;;;;;;;;;26.07;53.16;100896.57;1765444;79;20139;-57
2021/07/10 00:57:34;;;;;;;;;;;;;;;26.08;53.21;100891.81;1767223;79;21067;-56
2021/07/10 01:00:03;;;;;;;;;;;;;;;26.08;53.27;100894.02;1776188;78;20184;-56
2021/07/10 01:02:29;;;;;;;;;;;;;;;26.09;53.34;100889.25;1780091;79;20446;-57
2021/07/10 01:04:55;;;;;;;;;;;;;;;26.08;53.37;100882.87;1772002;78;20615;-56
2021/07/10 01:07:21;;;;;;;;;;;;;;;26.09;53.42;100879.50;1775443;78;20199;-56
2021/07/10 01:09:47;;;;;;;;;;;;;;;26.09;53.47;100879.50;1773516;78;23202;-56
2021/07/10 01:12:12;;;;;;;;;;;;;;;26.09;53.52;100878.92;1778563;79;20175;-56
2021/07/10 01:14:38;;;;;;;;;;;;;;;26.09;53.53;100875.31;1767971;79;20235;-56
2021/07/10 01:17:04;;;;;;;;;;;;;;;26.10;53.56;100875.52;1751375;79;20359;-57
2021/07/10 01:19:30;;;;;;;;;;;;;;;26.10;53.59;100872.73;1774325;79;20466;-56
2021/07/10 01:21:57;;;;;;;;;;;;;;;26.10;53.63;100866.58;1769920;79;21064;-56
2021/07/10 01:24:23;;;;;;;;;;;;;;;26.10;53.67;100861.00;1770404;79;20216;-56
2021/07/10 01:26:49;;;;;;;;;;;;;;;26.11;53.68;100864.02;1768722;79;20285;-56
2021/07/10 01:29:14;;;;;;;;;;;;;;;26.12;53.65;100860.08;1754270;79;20420;-59
2021/07/10 01:31:40;;;;;;;;;;;;;;;26.13;53.68;100858.92;1762702;79;20180;-56
2021/07/10 01:34:06;;;;;;;;;;;;;;;26.13;53.81;100860.31;1767010;79;21027;-56
2021/07/10 01:36:33;;;;;;;;;;;;;;;26.13;53.91;100860.31;1777889;79;20266;-56
2021/07/10 01:38:59;;;;;;;;;;;;;;;26.13;53.97;100860.31;1770598;79;20565;-56
2021/07/10 01:41:25;;;;;;;;;;;;;;;26.13;54.01;100858.11;1772653;79;20487;-56
2021/07/10 01:43:51;;;;;;;;;;;;;;;26.12;54.09;100850.32;1773171;79;20179;-56
2021/07/10 01:46:18;;;;;;;;;;;;;;;26.12;54.10;100848.11;1768747;79;21910;-56
2021/07/10 01:48:45;;;;;;;;;;;;;;;26.13;54.17;100844.98;1767492;79;20165;-56
2021/07/10 01:51:11;;;;;;;;;;;;;;;26.13;54.20;100838.59;1765881;79;20215;-56
2021/07/10 01:53:37;;;;;;;;;;;;;;;26.13;54.24;100846.95;1767888;79;20167;-56
2021/07/10 01:56:03;;;;;;;;;;;;;;;26.13;54.25;100847.77;1760220;79;20181;-56
2021/07/10 01:58:29;;;;;;;;;;;;;;;26.13;54.30;100849.16;1763703;79;21035;-56
2021/07/10 02:00:55;;;;;;;;;;;;;;;26.13;54.33;100845.56;1758205;79;20457;-56
2021/07/10 02:03:22;;;;;;;;;;;;;;;26.14;54.37;100843.00;1764061;79;20173;-56
2021/07/10 02:05:47;;;;;;;;;;;;;;;26.13;54.42;100833.01;1763656;79;20313;-57
2021/07/10 02:08:14;;;;;;;;;;;;;;;26.12;54.45;100834.98;1775481;79;20186;-56
2021/07/10 02:10:40;;;;;;;;;;;;;;;26.13;54.43;100836.61;1774909;79;21112;-56
2021/07/10 02:13:08;;;;;;;;;;;;;;;26.14;54.42;100836.81;1764917;79;20193;-56
2021/07/10 02:15:34;;;;;;;;;;;;;;;26.15;54.37;100839.03;1777746;79;20187;-56
2021/07/10 02:18:01;;;;;;;;;;;;;;;26.14;54.38;100841.00;1759484;79;20290;-56
2021/07/10 02:20:27;;;;;;;;;;;;;;;26.15;54.36;100841.23;1760517;79;20173;-56
2021/07/10 02:22:53;;;;;;;;;;;;;;;26.15;54.36;100844.60;1766649;79;21024;-56
2021/07/10 02:25:20;;;;;;;;;;;;;;;26.16;54.36;100837.29;1774372;79;20237;-56
2021/07/10 02:27:46;;;;;;;;;;;;;;;26.16;54.34;100832.29;1776932;79;20168;-55
2021/07/10 02:30:14;;;;;;;;;;;;;;;26.16;54.35;100837.29;1770425;79;20188;-55
2021/07/10 02:32:40;;;;;;;;;;;;;;;26.18;54.38;100844.70;1766738;79;20168;-56
2021/07/10 02:35:07;;;;;;;;;;;;;;;26.18;54.40;100845.31;1765576;79;20979;-55
2021/07/10 02:37:33;;;;;;;;;;;;;;;26.17;54.39;100844.50;1770113;79;20441;-55
2021/07/10 02:40:00;;;;;;;;;;;;;;;26.17;54.35;100848.68;1757635;79;20204;-56
2021/07/10 02:42:26;;;;;;;;;;;;;;;26.16;54.31;100847.63;1756260;79;20227;-56
2021/07/10 02:44:52;;;;;;;;;;;;;;;26.16;54.29;100840.66;1759565;79;20645;-55
2021/07/10 02:47:17;;;;;;;;;;;;;;;26.15;54.24;100842.63;1771415;79;21822;-55
2021/07/10 02:49:43;;;;;;;;;;;;;;;26.15;54.21;100842.63;1762915;79;20156;-56
2021/07/10 02:52:10;;;;;;;;;;;;;;;26.15;54.17;100848.20;1769613;79;20246;-55
2021/07/10 02:54:36;;;;;;;;;;;;;;;26.16;54.16;100851.81;1766726;79;20454;-55
2021/07/10 02:57:02;;;;;;;;;;;;;;;26.15;54.20;100852.97;1772717;79;20852;-55
2021/07/10 02:59:28;;;;;;;;;;;;;;;26.16;54.23;100846.23;1775710;79;21174;-55
2021/07/10 03:01:54;;;;;;;;;;;;;;;26.16;54.23;100846.23;1775678;79;21677;-57
2021/07/10 03:04:20;;;;;;;;;;;;;;;26.17;54.23;100843.10;1770601;79;20254;-55
2021/07/10 03:06:46;;;;;;;;;;;;;;;26.17;54.24;100838.92;1771261;79;20159;-55
2021/07/10 03:09:12;;;;;;;;;;;;;;;26.16;54.22;100840.08;1768675;79;20167;-55
2021/07/10 03:11:38;;;;;;;;;;;;;;;26.18;54.22;100834.16;1757016;79;21250;-55
2021/07/10 03:14:03;;;;;;;;;;;;;;;26.18;54.23;100829.97;1772227;79;20285;-55
2021/07/10 03:16:29;;;;;;;;;;;;;;;26.16;54.27;100827.53;1762784;79;20248;-56
2021/07/10 03:18:55;;;;;;;;;;;;;;;26.17;54.26;100827.77;1763631;79;20794;-56
2021/07/10 03:21:21;;;;;;;;;;;;;;;26.16;54.25;100824.73;1764243;79;20133;-56
2021/07/10 03:23:47;;;;;;;;;;;;;;;26.15;54.22;100827.30;1770453;79;21903;-55
2021/07/10 03:26:13;;;;;;;;;;;;;;;26.16;54.23;100826.72;1764173;79;20153;-55
2021/07/10 03:28:40;;;;;;;;;;;;;;;26.15;54.27;100830.08;1764360;79;20195;-55
2021/07/10 03:31:07;;;;;;;;;;;;;;;26.15;54.23;100827.30;1760311;79;20494;-55
2021/07/10 03:33:36;;;;;;;;;;;;;;;26.15;54.24;100838.45;1762513;79;20144;-56
2021/07/10 03:36:02;;;;;;;;;;;;;;;26.16;54.28;100838.69;1766459;79;22080;-55
2021/07/10 03:38:28;;;;;;;;;;;;;;;26.16;54.29;100832.29;1762717;79;20184;-55
2021/07/10 03:40:54;;;;;;;;;;;;;;;26.15;54.28;100834.27;1770191;79;20178;-56
2021/07/10 03:43:20;;;;;;;;;;;;;;;26.16;54.29;100831.71;1765075;79;20697;-55
2021/07/10 03:45:46;;;;;;;;;;;;;;;26.15;54.29;100827.30;1764504;79;20827;-56
2021/07/10 03:48:12;;;;;;;;;;;;;;;26.15;54.31;100830.08;1765018;79;21932;-55
2021/07/10 03:50:38;;;;;;;;;;;;;;;26.16;54.29;100826.72;1764253;79;20238;-56
2021/07/10 03:53:04;;;;;;;;;;;;;;;26.16;54.31;100825.32;1761869;79;20153;-55
2021/07/10 03:55:30;;;;;;;;;;;;;;;26.16;54.34;100817.77;1762549;79;20928;-56
2021/07/10 03:57:56;;;;;;;;;;;;;;;26.16;54.33;100816.95;1768315;79;20235;-55
2021/07/10 04:00:22;;;;;;;;;;;;;;;26.15;54.31;100811.95;1764634;79;21125;-55
2021/07/10 04:02:48;;;;;;;;;;;;;;;26.15;54.34;100804.17;1752229;79;20172;-55
2021/07/10 04:05:14;;;;;;;;;;;;;;;26.15;54.29;100813.93;1766277;79;20378;-56
2021/07/10 04:07:41;;;;;;;;;;;;;;;26.14;54.31;100815.91;1762305;79;20692;-55
2021/07/10 04:10:08;;;;;;;;;;;;;;;26.15;54.33;100802.20;1756631;79;20193;-55
2021/07/10 04:12:34;;;;;;;;;;;;;;;26.15;54.33;100809.16;1768379;79;21063;-55
2021/07/10 04:15:00;;;;;;;;;;;;;;;26.15;54.33;100803.59;1773334;79;20731;-55
2021/07/10 04:17:28;;;;;;;;;;;;;;;26.14;54.33;100801.17;1757813;79;20236;-56
2021/07/10 04:19:55;;;;;;;;;;;;;;;26.14;54.35;100808.94;1756447;80;20142;-55
2021/07/10 04:22:21;;;;;;;;;;;;;;;26.15;54.35;100804.98;1765907;79;20143;-56
2021/07/10 04:24:47;;;;;;;;;;;;;;;26.15;54.35;100806.37;1761641;80;21087;-56
2021/07/10 04:27:12;;;;;;;;;;;;;;;26.15;54.35;100800.80;1766327;79;20234;-55
2021/07/10 04:29:38;;;;;;;;;;;;;;;26.16;54.34;100799.64;1759365;79;20614;-55
2021/07/10 04:32:05;;;;;;;;;;;;;;;26.16;54.33;100805.22;1761292;80;20199;-55
2021/07/10 04:34:31;;;;;;;;;;;;;;;26.16;54.34;100805.22;1763937;79;20170;-55
2021/07/10 04:36:57;;;;;;;;;;;;;;;26.17;54.35;100802.67;1764619;80;21229;-55
2021/07/10 04:39:23;;;;;;;;;;;;;;;26.18;54.33;100802.87;1759194;80;20205;-55
2021/07/10 04:41:49;;;;;;;;;;;;;;;26.16;54.34;100801.61;1755081;79;20195;-55
2021/07/10 04:44:15;;;;;;;;;;;;;;;26.16;54.34;100802.43;1770409;79;20185;-56
2021/07/10 04:46:40;;;;;;;;;;;;;;;26.16;54.35;100812.77;1758981;79;20135;-55
2021/07/10 04:49:06;;;;;;;;;;;;;;;26.16;54.35;100808.59;1755104;80;21113;-55
2021/07/10 04:51:32;;;;;;;;;;;;;;;26.17;54.34;100814.40;1767931;80;20837;-55
2021/07/10 04:53:58;;;;;;;;;;;;;;;26.17;54.32;100820.80;1761446;80;20161;-56
2021/07/10 04:56:24;;;;;;;;;;;;;;;26.16;54.33;100816.37;1765619;80;20171;-56
2021/07/10 04:58:50;;;;;;;;;;;;;;;26.18;54.34;100822.39;1764624;79;20161;-56
2021/07/10 05:01:15;;;;;;;;;;;;;;;26.18;54.34;100825.18;1765165;79;21317;-55
2021/07/10 05:03:41;;;;;;;;;;;;;;;26.18;54.36;100822.39;1768893;79;21756;-56
2021/07/10 05:06:09;;;;;;;;;;;;;;;26.19;54.36;100826.81;1759555;79;20274;-56
2021/07/10 05:08:34;;;;;;;;;;;;;;;26.19;54.35;100821.81;1765128;79;20173;-56
2021/07/10 05:11:00;;;;;;;;;;;;;;;26.19;54.36;100828.78;1768388;79;20264;-55
2021/07/10 05:13:26;;;;;;;;;;;;;;;26.18;54.39;100826.58;1756092;80;21023;-57
2021/07/10 05:15:52;;;;;;;;;;;;;;;26.18;54.39;100830.76;1769689;79;20178;-56
2021/07/10 05:18:19;;;;;;;;;;;;;;;26.19;54.39;100834.36;1769403;79;20187;-56
2021/07/10 05:20:47;;;;;;;;;;;;;;;26.19;54.42;100831.58;1762565;79;20693;-56
2021/07/10 05:23:13;;;;;;;;;;;;;;;26.20;54.41;100835.44;1768304;79;20780;-56
2021/07/10 05:25:39;;;;;;;;;;;;;;;26.19;54.41;100832.39;1770021;79;21088;-56
2021/07/10 05:28:05;;;;;;;;;;;;;;;26.20;54.43;100838.23;1765870;79;20243;-56
2021/07/10 05:30:31;;;;;;;;;;;;;;;26.19;54.45;100837.96;1766833;79;20417;-56
2021/07/10 05:32:57;;;;;;;;;;;;;;;26.19;54.45;100836.57;1764118;79;20662;-56
2021/07/10 05:35:23;;;;;;;;;;;;;;;26.19;54.46;100840.75;1764358;79;20204;-56
2021/07/10 05:37:49;;;;;;;;;;;;;;;26.20;54.45;100843.81;1770937;79;21139;-56
2021/07/10 05:40:15;;;;;;;;;;;;;;;26.20;54.45;100846.59;1769396;79;20150;-56
2021/07/10 05:42:41;;;;;;;;;;;;;;;26.21;54.46;100850.20;1764707;79;20406;-56
2021/07/10 05:45:08;;;;;;;;;;;;;;;26.21;54.48;100852.99;1775336;79;20685;-56
2021/07/10 05:47:34;;;;;;;;;;;;;;;26.21;54.48;100854.38;1770353;79;20469;-57
2021/07/10 05:50:00;;;;;;;;;;;;;;;26.21;54.48;100857.98;1775838;79;21826;-56
2021/07/10 05:52:26;;;;;;;;;;;;;;;26.21;54.47;100857.17;1771384;79;20140;-56
2021/07/10 05:54:52;;;;;;;;;;;;;;;26.22;54.47;100862.98;1773609;79;20191;-56
2021/07/10 05:57:18;;;;;;;;;;;;;;;26.21;54.50;100862.75;1762498;79;20612;-56
2021/07/10 05:59:44;;;;;;;;;;;;;;;26.22;54.51;100864.38;1769565;79;20177;-55
2021/07/10 06:02:10;;;;;;;;;;;;;;;26.22;54.51;100861.59;1769427;79;21205;-56
2021/07/10 06:04:36;;;;;;;;;;;;;;;26.22;54.52;100862.98;1771056;79;20164;-56
2021/07/10 06:07:03;;;;;;;;;;;;;;;26.22;54.53;100868.56;1775624;79;20180;-56
2021/07/10 06:09:29;;;;;;;;;;;;;;;26.22;54.56;100867.17;1773352;79;20203;-55
2021/07/10 06:11:56;;;;;;;;;;;;;;;26.21;54.56;100854.38;1766659;79;20431;-55
2021/07/10 06:14:22;;;;;;;;;;;;;;;26.21;54.57;100857.98;1768238;79;21137;-56
2021/07/10 06:16:47;;;;;;;;;;;;;;;26.23;54.58;100868.77;1770089;79;20797;-56
2021/07/10 06:19:13;;;;;;;;;;;;;;;26.21;54.58;100866.36;1767517;79;20213;-56
2021/07/10 06:21:39;;;;;;;;;;;;;;;26.21;54.58;100864.96;1762624;79;22183;-56
2021/07/10 06:24:05;;;;;;;;;;;;;;;26.21;54.58;100870.54;1764102;79;20274;-56
2021/07/10 06:26:31;;;;;;;;;;;;;;;26.21;54.59;100871.94;1763834;79;21052;-56
2021/07/10 06:28:57;;;;;;;;;;;;;;;26.21;54.61;100877.52;1768809;79;20453;-56
2021/07/10 06:31:23;;;;;;;;;;;;;;;26.21;54.60;100869.14;1762015;80;20732;-55
2021/07/10 06:33:49;;;;;;;;;;;;;;;26.22;54.62;100878.33;1766406;79;20989;-55
2021/07/10 06:36:15;;;;;;;;;;;;;;;26.22;54.63;100883.91;1768986;79;20274;-56
2021/07/10 06:38:41;;;;;;;;;;;;;;;26.22;54.63;100882.52;1768408;79;21168;-56
2021/07/10 06:41:07;;;;;;;;;;;;;;;26.22;54.66;100878.33;1766991;79;20777;-56
2021/07/10 06:43:33;;;;;;;;;;;;;;;26.21;54.67;100871.12;1760094;79;20215;-56
2021/07/10 06:45:58;;;;;;;;;;;;;;;26.22;54.65;100881.93;1760087;79;20156;-56
2021/07/10 06:48:24;;;;;;;;;;;;;;;26.21;54.69;100883.09;1755825;79;20183;-57
2021/07/10 06:50:50;;;;;;;;;;;;;;;26.20;54.70;100875.06;1763237;79;21316;-56
2021/07/10 06:53:23;;;;;;;;;;;;;;;26.21;54.70;100877.52;1762902;79;20200;-56
2021/07/10 06:55:49;;;;;;;;;;;;;;;26.20;54.72;100875.88;1758932;79;20324;-56
2021/07/10 06:58:15;;;;;;;;;;;;;;;26.20;54.71;100884.83;1758302;79;20193;-55
2021/07/10 07:00:41;;;;;;;;;;;;;;;26.20;54.73;100880.64;1753429;79;20221;-56
2021/07/10 07:03:07;;;;;;;;;;;;;;;26.19;54.73;100879.80;1755198;79;21158;-56
2021/07/10 07:05:33;;;;;;;;;;;;;;;26.20;54.74;100882.03;1760069;79;20969;-56
2021/07/10 07:07:59;;;;;;;;;;;;;;;26.19;54.78;100876.19;1755830;79;20519;-57
2021/07/10 07:10:25;;;;;;;;;;;;;;;26.18;54.80;100878.16;1760457;79;20751;-56
2021/07/10 07:12:51;;;;;;;;;;;;;;;26.18;54.84;100880.95;1768470;79;20254;-56
2021/07/10 07:15:17;;;;;;;;;;;;;;;26.18;54.86;100878.77;1756494;79;21211;-56
2021/07/10 07:17:43;;;;;;;;;;;;;;;26.18;54.86;100883.74;1762382;79;20184;-56
2021/07/10 07:20:12;;;;;;;;;;;;;;;26.18;54.86;100872.59;1774505;78;20734;-56
2021/07/10 07:22:38;;;;;;;;;;;;;;;26.18;54.87;100878.77;1753900;79;20611;-56
2021/07/10 07:25:04;;;;;;;;;;;;;;;26.16;54.87;100872.73;1762964;79;20215;-56
2021/07/10 07:27:30;;;;;;;;;;;;;;;26.18;54.85;100886.53;1762329;79;20971;-56
2021/07/10 07:29:56;;;;;;;;;;;;;;;26.19;54.83;100887.34;1753084;79;20450;-56
2021/07/10 07:32:22;;;;;;;;;;;;;;;26.19;54.81;100882.58;1765658;79;20310;-56
2021/07/10 07:34:48;;;;;;;;;;;;;;;26.18;54.79;100882.35;1755930;80;20179;-56
2021/07/10 07:37:16;;;;;;;;;;;;;;;26.20;54.77;100882.03;1783487;79;20216;-56
2021/07/10 07:39:46;;;;;;;;;;;;;;;26.20;54.74;100884.25;1761144;79;22138;-57
2021/07/10 07:42:14;;;;;;;;;;;;;;;26.20;54.76;100884.25;1765202;79;20549;-56
2021/07/10 07:44:41;;;;;;;;;;;;;;;26.20;54.73;100877.27;1762540;79;20209;-56
2021/07/10 07:47:12;;;;;;;;;;;;;;;26.20;54.76;100880.06;1761669;79;20138;-56
2021/07/10 07:49:38;;;;;;;;;;;;;;;26.21;54.73;100878.09;1757506;79;20184;-56
2021/07/10 07:52:05;;;;;;;;;;;;;;;26.21;54.74;100871.94;1757132;80;21076;-56
2021/07/10 07:54:31;;;;;;;;;;;;;;;26.22;54.77;100875.53;1761843;80;20493;-56
2021/07/10 07:56:57;;;;;;;;;;;;;;;26.23;54.78;100871.56;1753495;80;20290;-56
2021/07/10 07:59:23;;;;;;;;;;;;;;;26.21;54.77;100867.75;1754230;80;20441;-56
2021/07/10 08:01:49;;;;;;;;;;;;;;;26.22;54.77;100868.56;1758226;80;20130;-56
2021/07/10 08:04:15;;;;;;;;;;;;;;;26.21;54.78;100861.36;1758018;79;22436;-55
2021/07/10 08:06:41;;;;;;;;;;;;;;;26.22;54.81;100862.41;1762346;79;21624;-58
2021/07/10 08:09:07;;;;;;;;;;;;;;;26.23;54.81;100860.41;1756441;79;20215;-56
2021/07/10 08:11:33;;;;;;;;;;;;;;;26.23;54.81;100860.41;1757836;80;20190;-56
2021/07/10 08:13:58;;;;;;;;;;;;;;;26.23;54.81;100864.01;1752817;80;20239;-56
2021/07/10 08:16:25;;;;;;;;;;;;;;;26.23;54.79;100861.80;1757422;80;21483;-55
2021/07/10 08:18:52;;;;;;;;;;;;;;;26.23;54.82;100859.01;1759579;79;20208;-56
2021/07/10 08:21:18;;;;;;;;;;;;;;;26.24;54.82;100860.64;1749564;79;20216;-58
2021/07/10 08:23:44;;;;;;;;;;;;;;;26.24;54.83;100854.48;1764414;80;20166;-56
2021/07/10 08:26:11;;;;;;;;;;;;;;;26.24;54.81;100858.66;1747941;80;20181;-57
2021/07/10 08:28:37;;;;;;;;;;;;;;;26.25;54.84;100859.48;1749493;80;20994;-56
2021/07/10 08:31:03;;;;;;;;;;;;;;;26.25;54.82;100855.30;1765765;79;21709;-56
2021/07/10 08:33:29;;;;;;;;;;;;;;;26.25;54.83;100859.48;1766523;79;20267;-56
2021/07/10 08:35:55;;;;;;;;;;;;;;;26.25;54.83;100855.30;1767552;79;20208;-56
2021/07/10 08:38:21;;;;;;;;;;;;;;;26.25;54.83;100860.30;1752807;79;20872;-56
2021/07/10 08:40:46;;;;;;;;;;;;;;;26.25;54.83;100862.27;1753349;79;21043;-56
2021/07/10 08:43:13;;;;;;;;;;;;;;;26.25;54.85;100861.69;1757966;79;20160;-56
2021/07/10 08:45:38;;;;;;;;;;;;;;;26.26;54.86;100859.14;1766669;79;20223;-57
2021/07/10 08:48:05;;;;;;;;;;;;;;;26.25;54.86;100863.08;1767808;79;20214;-56
2021/07/10 08:50:32;;;;;;;;;;;;;;;26.26;54.85;100861.92;1774829;79;20490;-57
2021/07/10 08:52:58;;;;;;;;;;;;;;;26.27;54.80;100862.70;1771923;79;21056;-56
2021/07/10 08:55:24;;;;;;;;;;;;;;;26.27;54.79;100852.95;1772228;79;20200;-56
2021/07/10 08:57:51;;;;;;;;;;;;;;;26.28;54.74;100855.97;1761291;79;20481;-56
2021/07/10 09:00:22;;;;;;;;;;;;;;;26.28;54.67;100854.00;1773304;79;20714;-56
2021/07/10 09:02:50;;;;;;;;;;;;;;;26.28;54.58;100852.61;1771736;79;20273;-57
2021/07/10 09:05:16;;;;;;;;;;;;;;;26.28;54.49;100853.19;1771369;79;22137;-56
2021/07/10 09:08:19;;;;;;;;;;;;;;;26.29;54.42;100854.81;1753856;79;20207;-56
2021/07/10 09:11:02;;;;;;;;;;;;;;;26.29;54.33;100841.69;1786925;78;20241;-57
2021/07/10 09:13:35;;;;;;;;;;;;;;;26.27;54.06;100854.34;1829919;76;20208;-57
2021/07/10 09:16:04;;;;;;;;;;;;;;;26.23;53.71;100853.43;1824135;76;20206;-57
2021/07/10 09:18:45;;;;;;;;;;;;;;;26.15;53.46;100857.16;1828234;76;21146;-57
2021/07/10 09:21:13;;;;;;;;;;;;;;;26.09;53.24;100844.06;1844751;76;20353;-57
2021/07/10 09:23:42;;;;;;;;;;;;;;;26.02;53.04;100843.84;1831358;76;20186;-57
2021/07/10 09:26:19;;;;;;;;;;;;;;;25.96;52.90;100845.27;1830588;76;20778;-57
2021/07/10 09:29:01;;;;;;;;;;;;;;;25.91;52.77;100839.94;1823698;76;20196;-57
2021/07/10 09:31:29;;;;;;;;;;;;;;;25.85;52.64;100834.36;1818131;76;22019;-55
2021/07/10 09:33:58;;;;;;;;;;;;;;;25.81;52.52;100835.66;1823799;76;20454;-56
2021/07/10 09:36:24;;;;;;;;;;;;;;;25.78;52.39;100841.13;1823813;76;20172;-55
2021/07/10 09:38:53;;;;;;;;;;;;;;;25.74;52.26;100840.20;1823545;76;20136;-54
2021/07/10 09:41:28;;;;;;;;;;;;;;;25.70;52.11;100842.89;1823407;76;20183;-53
2021/07/10 09:44:06;;;;;;;;;;;;;;;25.66;52.03;100830.83;1823075;76;21202;-54
2021/07/10 09:46:32;;;;;;;;;;;;;;;25.62;51.90;100829.91;1822105;76;20180;-58
2021/07/10 09:48:58;;;;;;;;;;;;;;;25.60;51.79;100828.62;1823641;76;20174;-55
2021/07/10 09:51:26;;;;;;;;;;;;;;;25.54;51.71;100832.25;1824093;76;20788;-53
2021/07/10 09:53:59;;;;;;;;;;;;;;;25.51;51.62;100823.72;1823494;76;20183;-55
2021/07/10 09:56:25;;;;;;;;;;;;;;;25.49;51.57;100818.52;1822419;76;21957;-53
2021/07/10 09:58:51;;;;;;;;;;;;;;;25.45;51.47;100811.45;1822411;76;20194;-55
2021/07/10 10:01:32;;;;;;;;;;;;;;;25.42;51.40;100814.91;1825574;76;21481;-55
2021/07/10 10:03:59;;;;;;;;;;;;;;;25.40;51.31;100822.01;1815919;76;20199;-53
2021/07/10 10:06:32;;;;;;;;;;;;;;;25.36;51.22;100817.72;1824382;76;20504;-53
2021/07/10 10:08:59;;;;;;;;;;;;;;;25.36;51.18;100819.69;1824784;76;20756;-53
2021/07/10 10:11:27;;;;;;;;;;;;;;;25.35;51.07;100824.45;1832694;76;20215;-53
2021/07/10 10:13:56;;;;;;;;;;;;;;;25.33;50.94;100812.83;1825000;76;20227;-54
2021/07/10 10:16:22;;;;;;;;;;;;;;;25.31;50.84;100817.95;1825086;76;20234;-54
2021/07/10 10:18:48;;;;;;;;;;;;;;;25.31;50.76;100819.34;1825707;76;20195;-54
2021/07/10 10:21:14;;;;;;;;;;;;;;;25.29;50.63;100815.30;1815702;76;21138;-54
2021/07/10 10:23:40;;;;;;;;;;;;;;;25.26;50.52;100809.02;1767245;76;20188;-55
2021/07/10 10:26:06;;;;;;;;;;;;;;;25.24;50.43;100809.96;1817021;76;20277;-56
2021/07/10 10:28:32;;;;;;;;;;;;;;;25.22;50.35;100803.34;1820969;76;20743;-54
2021/07/10 10:30:58;;;;;;;;;;;;;;;25.21;50.29;100802.28;1819280;76;20243;-53
2021/07/10 10:33:25;;;;;;;;;;;;;;;25.20;50.22;100799.29;1816505;76;21396;-54
2021/07/10 10:35:53;;;;;;;;;;;;;;;25.19;50.14;100800.44;1825809;76;20491;-54
2021/07/10 10:38:19;;;;;;;;;;;;;;;25.18;50.12;100800.20;1820065;76;20220;-53
2021/07/10 10:40:45;;;;;;;;;;;;;;;25.19;50.06;100809.61;1819412;76;20426;-54
2021/07/10 10:43:14;;;;;;;;;;;;;;;25.19;50.02;100801.84;1817459;76;20235;-54
2021/07/10 10:45:41;;;;;;;;;;;;;;;25.18;49.99;100795.45;1814647;76;21277;-55
2021/07/10 10:48:07;;;;;;;;;;;;;;;25.19;49.96;100794.88;1827805;76;20461;-55
2021/07/10 10:50:40;;;;;;;;;;;;;;;25.21;49.95;100796.14;1823321;76;20211;-55
2021/07/10 10:53:09;;;;;;;;;;;;;;;25.21;49.92;100785.00;1825117;76;20259;-55
2021/07/10 10:55:37;;;;;;;;;;;;;;;25.22;49.89;100783.03;1822367;76;20158;-55
2021/07/10 10:58:30;;;;;;;;;;;;;;;25.24;49.86;100784.33;1816996;76;21156;-55
2021/07/10 11:01:09;;;;;;;;;;;;;;;25.24;49.84;100774.58;1820670;76;20187;-54
2021/07/10 11:03:37;;;;;;;;;;;;;;;25.27;49.80;100778.63;1820719;76;20243;-54
2021/07/10 11:06:03;;;;;;;;;;;;;;;25.27;49.78;100778.63;1821830;76;20984;-54
2021/07/10 11:08:34;;;;;;;;;;;;;;;25.28;49.75;100780.25;1819748;76;20219;-54
2021/07/10 11:11:03;;;;;;;;;;;;;;;25.29;49.75;100774.92;1818879;76;21284;-54
2021/07/10 11:13:33;;;;;;;;;;;;;;;25.31;49.72;100773.39;1819186;76;20708;-54
2021/07/10 11:16:12;;;;;;;;;;;;;;;25.32;49.71;100767.25;1819582;76;20227;-55
2021/07/10 11:18:55;;;;;;;;;;;;;;;25.33;49.69;100773.05;1786934;78;20302;-54
2021/07/10 11:21:45;;;;;;;;;;;;;;;25.35;49.66;100768.75;1766146;79;20200;-53
2021/07/10 11:24:20;;;;;;;;;;;;;;;25.34;49.64;100769.91;1774477;79;21154;-54
2021/07/10 11:26:59;;;;;;;;;;;;;;;25.34;49.60;100761.55;1777044;79;20368;-54
2021/07/10 11:29:34;;;;;;;;;;;;;;;25.35;49.58;100754.01;1776008;78;20247;-55
2021/07/10 11:32:19;;;;;;;;;;;;;;;25.36;49.56;100756.45;1772841;78;20267;-55
2021/07/10 11:34:50;;;;;;;;;;;;;;;25.35;49.54;100747.05;1777342;78;20183;-54
2021/07/10 11:37:25;;;;;;;;;;;;;;;25.36;49.50;100749.48;1770447;79;21207;-54
2021/07/10 11:40:06;;;;;;;;;;;;;;;25.38;49.43;100749.12;1765217;78;20216;-54
2021/07/10 11:42:45;;;;;;;;;;;;;;;25.38;49.34;100746.33;1769606;79;20401;-54
2021/07/10 11:45:23;;;;;;;;;;;;;;;25.38;49.28;100740.77;1768730;78;20529;-54
2021/07/10 11:47:51;;;;;;;;;;;;;;;25.37;49.22;100744.16;1773698;79;20141;-54
2021/07/10 11:50:30;;;;;;;;;;;;;;;25.38;49.14;100744.94;1768815;79;21045;-54
2021/07/10 11:53:11;;;;;;;;;;;;;;;25.37;49.07;100744.16;1777420;78;20133;-54
2021/07/10 11:55:42;;;;;;;;;;;;;;;25.39;49.06;100735.43;1772146;78;20188;-54
2021/07/10 11:58:10;;;;;;;;;;;;;;;25.41;49.03;100733.94;1775476;78;20216;-55
2021/07/10 12:00:36;;;;;;;;;;;;;;;25.44;48.99;100733.80;1777805;78;20508;-57
2021/07/10 12:03:04;;;;;;;;;;;;;;;25.46;49.00;100728.09;1774021;78;20188;-58
2021/07/10 12:05:33;;;;;;;;;;;;;;;25.53;48.93;100734.50;1775937;78;20256;-57
2021/07/10 12:07:59;;;;;;;;;;;;;;;25.55;48.84;100722.41;1754782;78;20169;-57
2021/07/10 12:10:36;;;;;;;;;;;;;;;25.58;48.80;100732.87;1775193;78;20659;-57
2021/07/10 12:13:12;;;;;;;;;;;;;;;25.63;48.79;100723.45;1778130;78;20219;-57
2021/07/10 12:15:56;;;;;;;;;;;;;;;25.66;48.69;100731.09;1773219;78;21079;-57
2021/07/10 12:18:23;;;;;;;;;;;;;;;25.68;48.64;100727.36;1693529;83;20291;-58
2021/07/10 12:21:01;;;;;;;;;;;;;;;25.70;48.58;100721.67;1732805;79;20203;-58
2021/07/10 12:23:32;;;;;;;;;;;;;;;25.74;48.51;100724.56;1727079;81;20226;-58
2021/07/10 12:26:01;;;;;;;;;;;;;;;25.77;48.44;100726.62;1745130;80;20208;-58
2021/07/10 12:28:36;;;;;;;;;;;;;;;25.78;48.39;100718.50;1748653;80;21068;-57
2021/07/10 12:31:04;;;;;;;;;;;;;;;25.80;48.36;100720.37;1752957;80;20147;-58
2021/07/10 12:33:36;;;;;;;;;;;;;;;25.82;48.34;100717.44;1752087;80;20443;-58
2021/07/10 12:36:26;;;;;;;;;;;;;;;25.85;48.31;100713.94;1749264;80;20212;-58
2021/07/10 12:39:01;;;;;;;;;;;;;;;25.88;48.24;100715.22;1755861;80;20214;-57